Time;durP1;ratioP1;P1;durP2;ratioP2;P2;SDS_P1;SDS_P2;PMS_P1;PMS_P2;Temp;Humidity;BMP_temperature;BMP_pressure;BME280_temperature;BME280_humidity;BME280_pressure;Samples;Min_cycle;Max_cycle;Signal;HPM_P1;HPM_P2
2023/04/04 00:00:29;;;;;;;;;;;;;;;5.36;43.01;101779.22;4958617;28;6802;-83
2023/04/04 00:02:55;;;;;;;;;;;;;;;5.34;43.22;101774.00;4964183;28;6992;-84
2023/04/04 00:05:20;;;;;;;;;;;;;;;5.34;43.56;101783.28;4941746;28;6772;-83
2023/04/04 00:07:47;;;;;;;;;;;;;;;5.31;43.63;101778.84;4952685;28;8409;-84
2023/04/04 00:10:13;;;;;;;;;;;;;;;5.29;43.41;101775.22;4958022;28;7221;-82
2023/04/04 00:12:39;;;;;;;;;;;;;;;5.27;43.27;101776.75;4947884;28;8412;-83
2023/04/04 00:15:05;;;;;;;;;;;;;;;5.27;43.40;101776.75;4959141;28;8463;-83
2023/04/04 00:17:31;;;;;;;;;;;;;;;5.25;43.84;101775.72;4946618;28;8540;-83
2023/04/04 00:19:57;;;;;;;;;;;;;;;5.26;43.68;101780.03;4967979;28;8714;-82
2023/04/04 00:22:23;;;;;;;;;;;;;;;5.25;43.52;101773.19;4956253;28;6772;-84
2023/04/04 00:24:48;;;;;;;;;;;;;;;5.25;43.78;101773.19;4944314;28;8423;-83
2023/04/04 00:27:15;;;;;;;;;;;;;;;5.23;43.52;101769.59;4967240;28;7293;-83
2023/04/04 00:29:41;;;;;;;;;;;;;;;5.23;43.78;101778.09;4947981;28;8516;-83
2023/04/04 00:32:06;;;;;;;;;;;;;;;5.22;43.96;101767.81;4953733;28;6852;-83
2023/04/04 00:34:32;;;;;;;;;;;;;;;5.22;43.92;101771.25;4959168;28;8369;-83
2023/04/04 00:36:57;;;;;;;;;;;;;;;5.22;43.69;101776.31;4940459;28;8556;-83
2023/04/04 00:39:25;;;;;;;;;;;;;;;5.22;44.19;101775.44;4963260;28;6944;-83
2023/04/04 00:41:51;;;;;;;;;;;;;;;5.22;44.30;101763.63;4963018;28;6994;-84
2023/04/04 00:44:17;;;;;;;;;;;;;;;5.23;43.84;101774.69;4952875;28;8542;-83
2023/04/04 00:46:43;;;;;;;;;;;;;;;5.23;44.05;101777.22;4941122;28;8537;-83
2023/04/04 00:49:09;;;;;;;;;;;;;;;5.20;44.04;101779.47;4956212;28;8763;-84
2023/04/04 00:51:35;;;;;;;;;;;;;;;5.19;43.97;101781.13;4955489;28;8406;-83
2023/04/04 00:54:01;;;;;;;;;;;;;;;5.19;43.86;101772.59;4951485;28;8875;-83
2023/04/04 00:56:29;;;;;;;;;;;;;;;5.19;43.95;101777.69;4954658;28;8439;-83
2023/04/04 00:58:56;;;;;;;;;;;;;;;5.16;43.98;101778.28;4970042;28;7316;-83
2023/04/04 01:01:24;;;;;;;;;;;;;;;5.14;43.44;101775.63;4963887;28;7253;-83
2023/04/04 01:03:51;;;;;;;;;;;;;;;5.11;44.33;101777.88;4954929;28;8560;-83
2023/04/04 01:06:17;;;;;;;;;;;;;;;5.08;44.21;101780.13;4955214;28;8624;-84
2023/04/04 01:08:45;;;;;;;;;;;;;;;5.06;43.72;101781.66;4943347;28;7824;-84
2023/04/04 01:11:11;;;;;;;;;;;;;;;5.02;43.79;101774.47;4955523;28;8388;-83
2023/04/04 01:13:37;;;;;;;;;;;;;;;5.00;44.41;101773.44;4966819;28;6772;-83
2023/04/04 01:16:02;;;;;;;;;;;;;;;4.98;43.79;101774.97;4969948;28;7060;-83
2023/04/04 01:18:33;;;;;;;;;;;;;;;4.96;44.54;101781.56;4966112;28;6858;-83
2023/04/04 01:21:04;;;;;;;;;;;;;;;4.95;44.71;101783.19;4969550;28;6964;-84
2023/04/04 01:24:00;;;;;;;;;;;;;;;4.94;44.53;101777.97;4936259;28;8631;-84
2023/04/04 01:26:26;;;;;;;;;;;;;;;4.90;44.29;101778.44;4969371;28;7425;-84
2023/04/04 01:28:53;;;;;;;;;;;;;;;4.87;44.61;101784.09;4952818;28;8697;-83
2023/04/04 01:31:40;;;;;;;;;;;;;;;4.82;44.07;101777.72;4963255;28;8688;-84
2023/04/04 01:34:19;;;;;;;;;;;;;;;4.79;44.40;101792.69;4942854;28;8566;-83
2023/04/04 01:37:16;;;;;;;;;;;;;;;4.74;44.13;101779.56;4969073;28;6852;-84
2023/04/04 01:39:58;;;;;;;;;;;;;;;4.72;44.27;101788.66;4956173;28;7169;-83
2023/04/04 01:42:25;;;;;;;;;;;;;;;4.69;44.25;101778.22;4967746;28;8599;-83
2023/04/04 01:44:55;;;;;;;;;;;;;;;4.68;45.02;101782.41;4972216;28;6859;-84
2023/04/04 01:47:22;;;;;;;;;;;;;;;4.67;44.42;101779.72;4949545;28;6827;-83
2023/04/04 01:49:48;;;;;;;;;;;;;;;4.65;44.56;101789.72;4953556;28;8669;-83
2023/04/04 01:52:13;;;;;;;;;;;;;;;4.65;44.75;101778.69;4966574;28;8396;-83
2023/04/04 01:54:39;;;;;;;;;;;;;;;4.62;44.92;101770.75;4936014;28;8510;-83
2023/04/04 01:57:05;;;;;;;;;;;;;;;4.61;44.47;101776.59;4962481;28;6801;-83
2023/04/04 01:59:30;;;;;;;;;;;;;;;4.57;45.46;101773.78;4942376;28;8556;-83
2023/04/04 02:01:56;;;;;;;;;;;;;;;4.56;44.82;101771.09;4967212;28;6814;-83
2023/04/04 02:04:22;;;;;;;;;;;;;;;4.55;44.70;101767.66;4964684;28;6800;-83
2023/04/04 02:06:47;;;;;;;;;;;;;;;4.56;45.17;101766.00;4940423;28;7145;-83
2023/04/04 02:09:13;;;;;;;;;;;;;;;4.52;45.17;101763.94;4967590;28;7177;-84
2023/04/04 02:11:38;;;;;;;;;;;;;;;4.50;44.91;101761.25;4970597;28;8432;-83
2023/04/04 02:14:04;;;;;;;;;;;;;;;4.51;45.30;101763.03;4941983;28;8335;-83
2023/04/04 02:16:30;;;;;;;;;;;;;;;4.50;45.28;101761.25;4965226;28;7591;-83
2023/04/04 02:18:56;;;;;;;;;;;;;;;4.51;45.24;101757.06;4968398;28;8534;-84
2023/04/04 02:21:21;;;;;;;;;;;;;;;4.52;44.81;101758.84;4950968;28;6832;-84
2023/04/04 02:23:47;;;;;;;;;;;;;;;4.49;45.39;101759.47;4951269;28;8543;-83
2023/04/04 02:26:13;;;;;;;;;;;;;;;4.48;45.25;101760.22;4967531;28;7241;-83
2023/04/04 02:28:38;;;;;;;;;;;;;;;4.46;45.01;101764.25;4948348;28;8476;-84
2023/04/04 02:31:04;;;;;;;;;;;;;;;4.44;45.49;101760.66;4965648;28;6876;-83
2023/04/04 02:33:30;;;;;;;;;;;;;;;4.39;45.27;101752.59;4948875;28;8495;-84
2023/04/04 02:35:57;;;;;;;;;;;;;;;4.38;44.65;101757.56;4956250;28;8585;-83
2023/04/04 02:38:24;;;;;;;;;;;;;;;4.37;44.88;101750.69;4960820;28;6784;-84
2023/04/04 02:40:50;;;;;;;;;;;;;;;4.34;45.50;101753.81;4959702;28;8434;-84
2023/04/04 02:43:16;;;;;;;;;;;;;;;4.33;45.09;101746.06;4934727;28;8506;-83
2023/04/04 02:45:41;;;;;;;;;;;;;;;4.32;45.29;101742.63;4941349;28;8578;-83
2023/04/04 02:48:07;;;;;;;;;;;;;;;4.33;45.32;101741.88;4947995;28;8351;-83
2023/04/04 02:50:33;;;;;;;;;;;;;;;4.32;45.44;101745.19;4939051;28;8444;-84
2023/04/04 02:53:00;;;;;;;;;;;;;;;4.33;45.29;101740.97;4946995;28;8663;-86
2023/04/04 02:55:25;;;;;;;;;;;;;;;4.34;46.00;101746.22;4945336;28;8578;-86
2023/04/04 02:57:51;;;;;;;;;;;;;;;4.35;45.48;101736.97;4968472;28;6844;-84
2023/04/04 03:00:17;;;;;;;;;;;;;;;4.36;45.60;101742.16;4965550;28;6795;-85
2023/04/04 03:02:43;;;;;;;;;;;;;;;4.38;45.47;101744.88;4963849;28;7502;-86
2023/04/04 03:05:09;;;;;;;;;;;;;;;4.35;45.09;101744.59;4967030;28;6840;-85
2023/04/04 03:07:35;;;;;;;;;;;;;;;4.30;45.26;101736.53;4967766;28;8476;-85
2023/04/04 03:10:00;;;;;;;;;;;;;;;4.24;45.26;101734.28;4927150;28;8385;-86
2023/04/04 03:12:26;;;;;;;;;;;;;;;4.19;45.80;101740.56;4949993;28;8417;-85
2023/04/04 03:14:52;;;;;;;;;;;;;;;4.12;45.22;101748.34;4968529;28;8787;-84
2023/04/04 03:17:18;;;;;;;;;;;;;;;4.07;45.84;101757.19;4942136;28;8748;-85
2023/04/04 03:19:44;;;;;;;;;;;;;;;4.02;45.72;101754.19;4966332;28;7219;-86
2023/04/04 03:22:10;;;;;;;;;;;;;;;4.00;45.38;101750.59;4941304;28;9597;-85
2023/04/04 03:24:36;;;;;;;;;;;;;;;3.99;45.68;101752.25;4972796;28;6776;-88
2023/04/04 03:27:02;;;;;;;;;;;;;;;3.96;45.75;101748.53;4975901;28;6776;-89
2023/04/04 03:29:27;;;;;;;;;;;;;;;3.95;46.09;101747.63;4938961;28;8573;-88
2023/04/04 03:31:53;;;;;;;;;;;;;;;3.93;45.79;101748.25;4960010;28;7465;-85
2023/04/04 03:34:19;;;;;;;;;;;;;;;3.89;45.75;101749.56;4949498;28;8758;-85
2023/04/04 03:36:48;;;;;;;;;;;;;;;3.84;46.57;101754.19;4959755;28;6780;-86
2023/04/04 03:39:13;;;;;;;;;;;;;;;3.79;46.13;101754.50;4967613;28;8532;-86
2023/04/04 03:41:39;;;;;;;;;;;;;;;3.74;45.86;101759.13;4959863;28;8384;-86
2023/04/04 03:44:05;;;;;;;;;;;;;;;3.67;46.38;101762.72;4961006;28;7026;-86
2023/04/04 03:46:31;;;;;;;;;;;;;;;3.61;46.47;101769.72;4961818;28;6800;-86
2023/04/04 03:48:58;;;;;;;;;;;;;;;3.53;46.17;101761.38;4964424;28;7153;-86
2023/04/04 03:51:27;;;;;;;;;;;;;;;3.47;45.75;101763.28;4951897;28;8623;-86
2023/04/04 03:53:53;;;;;;;;;;;;;;;3.40;46.37;101760.88;4943220;28;8834;-85
2023/04/04 03:56:18;;;;;;;;;;;;;;;3.33;46.08;101760.28;4968921;28;7185;-85
2023/04/04 03:58:44;;;;;;;;;;;;;;;3.28;46.47;101758.03;4941863;28;8699;-86
2023/04/04 04:01:10;;;;;;;;;;;;;;;3.22;45.88;101754.91;4958676;28;8496;-86
2023/04/04 04:03:36;;;;;;;;;;;;;;;3.15;46.52;101756.81;4972488;28;7313;-86
2023/04/04 04:06:02;;;;;;;;;;;;;;;3.10;46.81;101752.03;4951547;28;7185;-84
2023/04/04 04:08:27;;;;;;;;;;;;;;;3.05;47.40;101752.47;4944734;28;8832;-84
2023/04/04 04:10:53;;;;;;;;;;;;;;;2.99;47.36;101751.84;4967088;28;8345;-86
2023/04/04 04:13:20;;;;;;;;;;;;;;;2.96;47.11;101759.16;4941481;28;8453;-86
2023/04/04 04:15:46;;;;;;;;;;;;;;;2.91;47.68;101753.63;4969053;28;6970;-87
2023/04/04 04:18:11;;;;;;;;;;;;;;;2.87;47.04;101758.22;4977884;28;6780;-85
2023/04/04 04:20:37;;;;;;;;;;;;;;;2.83;47.12;101754.50;4947072;28;8387;-85
2023/04/04 04:23:03;;;;;;;;;;;;;;;2.79;47.44;101754.91;4960813;28;7013;-85
2023/04/04 04:25:28;;;;;;;;;;;;;;;2.77;47.65;101751.31;4957172;28;6788;-84
2023/04/04 04:27:56;;;;;;;;;;;;;;;2.75;47.41;101757.88;4947589;28;8488;-85
2023/04/04 04:30:22;;;;;;;;;;;;;;;2.71;47.55;101755.78;4952670;28;8443;-83
2023/04/04 04:32:49;;;;;;;;;;;;;;;2.69;47.65;101758.16;4944697;28;8577;-85
2023/04/04 04:35:15;;;;;;;;;;;;;;;2.66;48.06;101746.81;4944004;28;8859;-85
2023/04/04 04:37:41;;;;;;;;;;;;;;;2.64;47.57;101745.03;4972392;28;8496;-85
2023/04/04 04:40:07;;;;;;;;;;;;;;;2.65;47.86;101748.44;4970055;28;10406;-85
2023/04/04 04:42:34;;;;;;;;;;;;;;;2.61;48.11;101743.81;4972696;28;6796;-85
2023/04/04 04:45:00;;;;;;;;;;;;;;;2.60;47.99;101742.03;4954271;28;8447;-84
2023/04/04 04:47:26;;;;;;;;;;;;;;;2.58;47.90;101741.88;4934017;28;7127;-85
2023/04/04 04:49:52;;;;;;;;;;;;;;;2.58;48.73;101741.88;4958644;28;7198;-86
2023/04/04 04:52:18;;;;;;;;;;;;;;;2.55;48.61;101739.03;4956742;28;8343;-85
2023/04/04 04:54:44;;;;;;;;;;;;;;;2.50;48.23;101746.16;4970773;28;6849;-86
2023/04/04 04:57:10;;;;;;;;;;;;;;;2.49;47.99;101754.50;4956257;28;6999;-86
2023/04/04 04:59:36;;;;;;;;;;;;;;;2.47;48.77;101755.97;4955916;28;8419;-84
2023/04/04 05:02:01;;;;;;;;;;;;;;;2.48;48.18;101756.84;4960295;28;6913;-84
2023/04/04 05:04:27;;;;;;;;;;;;;;;2.50;49.00;101756.28;4950528;28;8754;-84
2023/04/04 05:06:52;;;;;;;;;;;;;;;2.52;48.79;101748.84;4957751;28;7829;-85
2023/04/04 05:09:18;;;;;;;;;;;;;;;2.55;48.81;101751.69;4945806;28;7155;-86
2023/04/04 05:11:44;;;;;;;;;;;;;;;2.55;48.85;101746.63;4975384;28;7308;-85
2023/04/04 05:14:09;;;;;;;;;;;;;;;2.56;48.62;101750.03;4960182;28;8871;-85
2023/04/04 05:16:35;;;;;;;;;;;;;;;2.55;48.54;101754.22;4936118;28;7316;-86
2023/04/04 05:19:01;;;;;;;;;;;;;;;2.55;49.17;101753.31;4942426;28;8609;-85
2023/04/04 05:21:27;;;;;;;;;;;;;;;2.54;48.72;101759.13;4906834;28;1516658;-86
2023/04/04 05:23:52;;;;;;;;;;;;;;;2.54;48.66;101766.72;4970111;28;6995;-86
2023/04/04 05:26:18;;;;;;;;;;;;;;;2.55;48.79;101768.50;4974257;28;7040;-86
2023/04/04 05:28:44;;;;;;;;;;;;;;;2.56;48.85;101771.19;4946238;28;8494;-86
2023/04/04 05:31:10;;;;;;;;;;;;;;;2.58;48.51;101768.84;4954506;28;8404;-85
2023/04/04 05:33:35;;;;;;;;;;;;;;;2.58;49.48;101768.84;4965471;28;6883;-85
2023/04/04 05:36:01;;;;;;;;;;;;;;;2.62;49.04;101764.25;4967495;28;6836;-85
2023/04/04 05:38:27;;;;;;;;;;;;;;;2.62;48.87;101769.31;4949842;28;8548;-86
2023/04/04 05:40:53;;;;;;;;;;;;;;;2.64;49.46;101762.75;4977055;28;6945;-88
2023/04/04 05:43:19;;;;;;;;;;;;;;;2.65;48.81;101766.16;4951655;28;8884;-86
2023/04/04 05:45:44;;;;;;;;;;;;;;;2.66;49.07;101769.59;4964418;28;8787;-85
2023/04/04 05:48:11;;;;;;;;;;;;;;;2.69;48.91;101773.34;4935454;28;8607;-85
2023/04/04 05:50:36;;;;;;;;;;;;;;;2.70;49.60;101764.09;4958166;28;8398;-85
2023/04/04 05:53:03;;;;;;;;;;;;;;;2.75;49.58;101789.19;4946029;28;8897;-86
2023/04/04 05:55:29;;;;;;;;;;;;;;;2.79;49.32;101785.28;4954992;28;8567;-86
2023/04/04 05:57:56;;;;;;;;;;;;;;;2.85;49.91;101790.06;4971967;28;7012;-85
2023/04/04 06:00:21;;;;;;;;;;;;;;;2.92;49.72;101793.41;4967001;28;8514;-85
2023/04/04 06:02:47;;;;;;;;;;;;;;;2.99;49.58;101783.88;4971962;28;8825;-85
2023/04/04 06:05:14;;;;;;;;;;;;;;;3.08;49.93;101782.28;4966783;28;6945;-84
2023/04/04 06:07:40;;;;;;;;;;;;;;;3.17;49.28;101784.84;4939651;28;8725;-84
2023/04/04 06:10:07;;;;;;;;;;;;;;;3.25;50.21;101780.53;4937342;28;8342;-84
2023/04/04 06:12:33;;;;;;;;;;;;;;;3.37;49.88;101786.81;4969260;28;6982;-85
2023/04/04 06:14:58;;;;;;;;;;;;;;;3.45;50.40;101791.00;4960708;28;8586;-84
2023/04/04 06:17:24;;;;;;;;;;;;;;;3.53;49.73;101788.34;4953805;28;8525;-85
2023/04/04 06:19:51;;;;;;;;;;;;;;;3.63;50.70;101793.56;4956583;28;8408;-85
2023/04/04 06:22:17;;;;;;;;;;;;;;;3.74;49.76;101792.97;4968509;28;8582;-84
2023/04/04 06:24:43;;;;;;;;;;;;;;;3.84;50.26;101794.78;4953528;28;8982;-84
2023/04/04 06:27:08;;;;;;;;;;;;;;;3.96;49.92;101800.16;4970239;28;6768;-84
2023/04/04 06:29:34;;;;;;;;;;;;;;;4.08;50.10;101800.44;4942658;28;8466;-83
2023/04/04 06:32:01;;;;;;;;;;;;;;;4.20;50.23;101800.72;4968861;28;6940;-84
2023/04/04 06:34:27;;;;;;;;;;;;;;;4.30;49.70;101802.53;4933384;28;8493;-85
2023/04/04 06:36:52;;;;;;;;;;;;;;;4.39;49.91;101789.81;4938684;28;8743;-84
2023/04/04 06:39:18;;;;;;;;;;;;;;;4.52;49.37;101797.81;4966897;28;7206;-83
2023/04/04 06:41:44;;;;;;;;;;;;;;;4.66;50.06;101795.72;4969249;28;6779;-84
2023/04/04 06:44:09;;;;;;;;;;;;;;;4.80;50.17;101799.56;4942316;28;8768;-84
2023/04/04 06:46:38;;;;;;;;;;;;;;;4.97;50.26;101803.66;4964858;28;7129;-83
2023/04/04 06:49:05;;;;;;;;;;;;;;;5.12;49.27;101802.56;4937933;28;10342;-84
2023/04/04 06:51:33;;;;;;;;;;;;;;;5.24;49.10;101812.06;4970420;28;7265;-83
2023/04/04 06:54:00;;;;;;;;;;;;;;;5.32;48.67;101811.13;4942951;28;8821;-84
2023/04/04 06:56:26;;;;;;;;;;;;;;;5.39;48.89;101817.66;4943351;28;6848;-83
2023/04/04 06:58:52;;;;;;;;;;;;;;;5.42;48.82;101818.84;4938336;28;8616;-87
2023/04/04 07:01:17;;;;;;;;;;;;;;;5.46;48.73;101820.03;4949530;28;8547;-83
2023/04/04 07:03:43;;;;;;;;;;;;;;;5.52;48.14;101825.66;4952550;28;8499;-84
2023/04/04 07:06:10;;;;;;;;;;;;;;;5.59;48.87;101829.63;4955698;28;8601;-83
2023/04/04 07:08:36;;;;;;;;;;;;;;;5.66;48.36;101828.56;4940813;28;7175;-83
2023/04/04 07:11:02;;;;;;;;;;;;;;;5.75;48.40;101831.03;4966959;28;7101;-83
2023/04/04 07:13:27;;;;;;;;;;;;;;;5.84;48.43;101826.78;4948703;28;8479;-83
2023/04/04 07:15:54;;;;;;;;;;;;;;;5.93;48.49;101832.69;4954096;28;8474;-83
2023/04/04 07:18:20;;;;;;;;;;;;;;;6.02;47.97;101827.56;4962062;28;8733;-84
2023/04/04 07:20:46;;;;;;;;;;;;;;;6.11;48.14;101825.84;4952218;28;8529;-84
2023/04/04 07:23:12;;;;;;;;;;;;;;;6.17;47.97;101822.06;4968577;28;8456;-84
2023/04/04 07:25:38;;;;;;;;;;;;;;;6.28;47.96;101826.44;4964864;28;6780;-83
2023/04/04 07:28:04;;;;;;;;;;;;;;;6.38;47.50;101815.44;4942751;28;7236;-85
2023/04/04 07:30:31;;;;;;;;;;;;;;;6.49;48.08;101813.81;4954936;28;6920;-83
2023/04/04 07:33:01;;;;;;;;;;;;;;;6.62;47.72;101809.03;4962411;28;6812;-83
2023/04/04 07:35:27;;;;;;;;;;;;;;;6.75;47.67;101804.97;4948741;28;8766;-84
2023/04/04 07:37:53;;;;;;;;;;;;;;;6.88;47.13;101794.19;4970467;28;6870;-85
2023/04/04 07:40:20;;;;;;;;;;;;;;;6.99;46.82;101800.19;4969365;28;7314;-84
2023/04/04 07:42:50;;;;;;;;;;;;;;;7.07;46.36;101800.09;4950583;28;8517;-83
2023/04/04 07:45:17;;;;;;;;;;;;;;;7.18;46.29;101802.66;4968211;28;6883;-80
2023/04/04 07:47:44;;;;;;;;;;;;;;;7.31;45.68;101797.81;4962335;28;8510;-83
2023/04/04 07:50:10;;;;;;;;;;;;;;;7.43;45.59;101795.38;4962316;28;6796;-84
2023/04/04 07:52:36;;;;;;;;;;;;;;;7.55;45.55;101789.50;4953149;28;6784;-84
2023/04/04 07:55:03;;;;;;;;;;;;;;;7.64;44.32;101785.16;4926257;28;9036;-86
2023/04/04 07:57:28;;;;;;;;;;;;;;;7.76;44.56;101790.38;4965740;28;6788;-84
2023/04/04 07:59:54;;;;;;;;;;;;;;;7.85;43.36;101792.78;4941048;28;7006;-86
2023/04/04 08:02:20;;;;;;;;;;;;;;;7.93;43.57;101789.19;4967835;28;8838;-86
2023/04/04 08:04:45;;;;;;;;;;;;;;;8.00;42.72;101798.25;4956457;28;8701;-84
2023/04/04 08:07:11;;;;;;;;;;;;;;;8.09;42.70;101798.13;4936756;28;8429;-85
2023/04/04 08:09:37;;;;;;;;;;;;;;;8.17;42.27;101782.63;4952646;28;8499;-84
2023/04/04 08:12:04;;;;;;;;;;;;;;;8.28;41.58;101795.34;4966421;28;7063;-82
2023/04/04 08:14:30;;;;;;;;;;;;;;;8.36;41.50;101789.19;4965611;28;6949;-83
2023/04/04 08:16:56;;;;;;;;;;;;;;;8.47;41.50;101787.50;4956427;28;8763;-87
2023/04/04 08:19:22;;;;;;;;;;;;;;;8.59;41.28;101798.72;4969682;28;7471;-85
2023/04/04 08:21:48;;;;;;;;;;;;;;;8.71;40.90;101788.56;4927038;28;8408;-85
2023/04/04 08:24:14;;;;;;;;;;;;;;;8.85;40.58;101781.97;4972475;28;8572;-86
2023/04/04 08:26:40;;;;;;;;;;;;;;;8.98;40.99;101796.59;4961596;28;8426;-84
2023/04/04 08:29:06;;;;;;;;;;;;;;;9.11;39.89;101794.97;4972742;28;6800;-85
2023/04/04 08:31:34;;;;;;;;;;;;;;;9.22;39.10;101801.78;4943808;28;8388;-85
2023/04/04 08:34:01;;;;;;;;;;;;;;;9.27;39.12;101792.81;4941014;28;8532;-86
2023/04/04 08:36:27;;;;;;;;;;;;;;;9.35;39.71;101793.38;4952482;28;8545;-85
2023/04/04 08:38:53;;;;;;;;;;;;;;;9.45;38.82;101787.25;4973031;28;7178;-85
2023/04/04 08:41:20;;;;;;;;;;;;;;;9.55;39.29;101787.16;4969677;28;7170;-85
2023/04/04 08:43:53;;;;;;;;;;;;;;;9.62;37.71;101788.53;4964453;28;7210;-84
2023/04/04 08:46:24;;;;;;;;;;;;;;;9.64;38.22;101786.06;4953472;28;6797;-84
2023/04/04 08:48:51;;;;;;;;;;;;;;;9.65;37.97;101791.31;4957269;28;6859;-85
2023/04/04 08:51:21;;;;;;;;;;;;;;;9.70;37.44;101786.53;4939691;28;8445;-85
2023/04/04 08:53:46;;;;;;;;;;;;;;;9.70;37.42;101792.53;4957293;28;6784;-85
2023/04/04 08:56:13;;;;;;;;;;;;;;;9.72;37.05;101792.66;4953427;28;8676;-85
2023/04/04 08:58:38;;;;;;;;;;;;;;;9.69;36.73;101797.56;4959292;28;8395;-85
2023/04/04 09:01:06;;;;;;;;;;;;;;;9.69;36.36;101789.88;4954501;28;8414;-84
2023/04/04 09:03:33;;;;;;;;;;;;;;;9.68;37.62;101790.66;4969103;28;6975;-84
2023/04/04 09:06:01;;;;;;;;;;;;;;;9.68;37.44;101786.41;4937906;28;8498;-84
2023/04/04 09:08:30;;;;;;;;;;;;;;;9.70;36.74;101794.22;4938950;28;8612;-84
2023/04/04 09:10:57;;;;;;;;;;;;;;;9.70;36.62;101795.09;4958961;28;6991;-85
2023/04/04 09:13:22;;;;;;;;;;;;;;;9.72;35.86;101787.53;4972699;28;6796;-85
2023/04/04 09:15:53;;;;;;;;;;;;;;;9.74;36.95;101788.53;4969975;28;7885;-84
2023/04/04 09:18:19;;;;;;;;;;;;;;;9.77;36.67;101781.09;4967869;28;6804;-85
2023/04/04 09:20:49;;;;;;;;;;;;;;;9.82;35.74;101784.88;4955171;28;6988;-84
2023/04/04 09:23:19;;;;;;;;;;;;;;;9.85;36.28;101784.19;4975054;28;7018;-85
2023/04/04 09:25:47;;;;;;;;;;;;;;;9.84;36.24;101783.31;4943934;28;8579;-85
2023/04/04 09:28:14;;;;;;;;;;;;;;;9.88;36.11;101778.41;4955599;28;8587;-84
2023/04/04 09:30:40;;;;;;;;;;;;;;;9.93;35.90;101782.19;4968592;28;8541;-84
2023/04/04 09:33:10;;;;;;;;;;;;;;;10.02;36.71;101775.19;4964839;28;6808;-84
2023/04/04 09:35:40;;;;;;;;;;;;;;;10.13;36.31;101779.41;4953511;28;8451;-84
2023/04/04 09:38:07;;;;;;;;;;;;;;;10.22;36.26;101786.88;4956508;28;6804;-81
2023/04/04 09:40:40;;;;;;;;;;;;;;;10.32;35.71;101777.28;4966880;28;7419;-84
2023/04/04 09:43:10;;;;;;;;;;;;;;;10.33;35.06;101777.38;4963737;28;6982;-85
2023/04/04 09:45:41;;;;;;;;;;;;;;;10.33;34.88;101769.69;4952018;28;6970;-85
2023/04/04 09:48:08;;;;;;;;;;;;;;;10.29;35.62;101775.38;4953473;28;8990;-85
2023/04/04 09:50:45;;;;;;;;;;;;;;;10.28;35.64;101769.38;4959289;28;9100;-85
2023/04/04 09:53:17;;;;;;;;;;;;;;;10.34;34.94;101779.19;4950409;28;8776;-85
2023/04/04 09:55:50;;;;;;;;;;;;;;;10.41;35.18;101772.81;4944204;28;7418;-82
2023/04/04 09:58:24;;;;;;;;;;;;;;;10.47;35.11;101780.94;4955901;28;8607;-81
2023/04/04 10:00:54;;;;;;;;;;;;;;;10.51;34.81;101776.94;4950631;28;7217;-84
2023/04/04 10:03:23;;;;;;;;;;;;;;;10.52;35.00;101777.03;4958028;28;6868;-84
2023/04/04 10:06:09;;;;;;;;;;;;;;;10.59;34.95;101770.66;4949933;28;8803;-84
2023/04/04 10:08:39;;;;;;;;;;;;;;;11.11;35.49;101765.66;4957115;28;6993;-84
2023/04/04 10:11:06;;;;;;;;;;;;;;;12.13;34.94;101755.16;4960578;28;7126;-85
2023/04/04 10:13:35;;;;;;;;;;;;;;;13.13;33.28;101759.47;4967261;28;7389;-84
2023/04/04 10:16:03;;;;;;;;;;;;;;;14.08;33.31;101759.72;4968320;28;7155;-85
2023/04/04 10:18:31;;;;;;;;;;;;;;;14.90;32.47;101755.47;4969144;28;6867;-84
2023/04/04 10:21:01;;;;;;;;;;;;;;;15.72;31.13;101739.69;4964412;28;6804;-84
2023/04/04 10:23:27;;;;;;;;;;;;;;;16.57;30.51;101729.81;4939115;28;7381;-84
2023/04/04 10:25:57;;;;;;;;;;;;;;;17.27;29.88;101736.28;4957858;28;8614;-85
2023/04/04 10:28:25;;;;;;;;;;;;;;;17.81;28.77;101729.81;4971670;28;6998;-85
2023/04/04 10:31:23;;;;;;;;;;;;;;;18.36;28.25;101726.72;4938800;28;7419;-84
2023/04/04 10:34:19;;;;;;;;;;;;;;;18.68;27.45;101738.28;4967566;28;7187;-84
2023/04/04 10:36:51;;;;;;;;;;;;;;;18.88;27.24;101731.19;4966854;28;8535;-84
2023/04/04 10:39:28;;;;;;;;;;;;;;;19.27;26.72;101723.88;4964763;28;6832;-85
2023/04/04 10:41:55;;;;;;;;;;;;;;;19.77;26.10;101722.84;4939772;28;8421;-84
2023/04/04 10:44:38;;;;;;;;;;;;;;;20.06;25.17;101718.53;4930661;28;8730;-83
2023/04/04 10:47:22;;;;;;;;;;;;;;;20.28;25.02;101711.38;4968970;28;7172;-85
2023/04/04 10:49:50;;;;;;;;;;;;;;;20.50;24.91;101701.56;4960888;28;6991;-84
2023/04/04 10:52:20;;;;;;;;;;;;;;;20.51;24.22;101700.72;4933522;28;8703;-84
2023/04/04 10:54:50;;;;;;;;;;;;;;;20.40;24.03;101703.91;4941715;28;6947;-84
2023/04/04 10:57:16;;;;;;;;;;;;;;;20.41;24.19;101712.59;4966966;28;6975;-84
2023/04/04 11:00:06;;;;;;;;;;;;;;;20.66;23.56;101702.84;4937898;28;8869;-84
2023/04/04 11:03:13;;;;;;;;;;;;;;;20.89;23.46;101693.06;4955634;28;8831;-80
2023/04/04 11:05:45;;;;;;;;;;;;;;;21.12;23.33;101682.34;4965528;28;7070;-84
2023/04/04 11:08:20;;;;;;;;;;;;;;;21.08;22.99;101689.19;4957121;28;8325;-84
2023/04/04 11:10:49;;;;;;;;;;;;;;;21.01;22.46;101686.41;4959984;28;7313;-84
2023/04/04 11:13:17;;;;;;;;;;;;;;;20.70;21.89;101677.78;4952753;28;8386;-84
2023/04/04 11:16:14;;;;;;;;;;;;;;;20.44;22.39;101672.72;4942585;28;8525;-84
2023/04/04 11:18:44;;;;;;;;;;;;;;;20.20;22.58;101673.84;4930779;28;8551;-83
2023/04/04 11:21:15;;;;;;;;;;;;;;;20.13;21.98;101670.16;4969582;28;7437;-84
2023/04/04 11:24:03;;;;;;;;;;;;;;;20.03;21.77;101675.91;4963058;28;6977;-80
2023/04/04 11:26:29;;;;;;;;;;;;;;;20.03;22.17;101670.72;4959378;28;8627;-80
2023/04/04 11:29:00;;;;;;;;;;;;;;;20.07;22.51;101676.06;4950962;28;6973;-80
2023/04/04 11:31:31;;;;;;;;;;;;;;;20.23;22.44;101669.59;4949802;28;7021;-80
2023/04/04 11:34:13;;;;;;;;;;;;;;;20.45;22.11;101667.59;4957094;28;7007;-80
2023/04/04 11:36:39;;;;;;;;;;;;;;;20.59;22.21;101662.75;4969663;28;7002;-80
2023/04/04 11:39:21;;;;;;;;;;;;;;;20.86;22.12;101659.13;4963468;28;7217;-80
2023/04/04 11:42:02;;;;;;;;;;;;;;;21.17;22.03;101659.88;4959584;28;6900;-80
2023/04/04 11:44:31;;;;;;;;;;;;;;;21.25;21.80;101654.00;4964495;28;7809;-80
2023/04/04 11:47:04;;;;;;;;;;;;;;;21.40;21.78;101656.06;4954837;28;8606;-82
2023/04/04 11:49:35;;;;;;;;;;;;;;;21.55;21.84;101643.38;4952900;28;8836;-81
2023/04/04 11:52:14;;;;;;;;;;;;;;;21.90;21.79;101652.81;4949930;28;7179;-81
2023/04/04 11:54:42;;;;;;;;;;;;;;;21.99;21.44;101650.41;4964143;28;7039;-82
2023/04/04 11:57:14;;;;;;;;;;;;;;;21.87;21.04;101655.38;4948460;28;6816;-81
2023/04/04 11:59:46;;;;;;;;;;;;;;;21.71;20.85;101643.75;4966244;28;6965;-81
2023/04/04 12:02:23;;;;;;;;;;;;;;;21.48;20.91;101642.34;4938075;28;6796;-81
2023/04/04 12:04:51;;;;;;;;;;;;;;;21.34;21.20;101635.91;4949102;28;8448;-81
2023/04/04 12:07:17;;;;;;;;;;;;;;;21.27;20.90;101639.25;4925994;28;8614;-82
2023/04/04 12:09:43;;;;;;;;;;;;;;;21.34;21.20;101625.50;4956909;28;8428;-81
2023/04/04 12:12:15;;;;;;;;;;;;;;;21.41;21.00;101630.00;4964315;28;8673;-82
2023/04/04 12:14:42;;;;;;;;;;;;;;;21.41;21.08;101624.78;4949430;28;7258;-81
2023/04/04 12:17:08;;;;;;;;;;;;;;;21.46;21.21;101617.97;4933223;28;8471;-82
2023/04/04 12:19:39;;;;;;;;;;;;;;;21.55;21.09;101624.25;4947953;28;7402;-82
2023/04/04 12:22:07;;;;;;;;;;;;;;;21.68;21.10;101623.69;4949901;28;6801;-81
2023/04/04 12:24:33;;;;;;;;;;;;;;;21.91;21.13;101621.56;4962115;28;7044;-82
2023/04/04 12:27:01;;;;;;;;;;;;;;;22.08;21.07;101622.75;4961186;28;6788;-82
2023/04/04 12:29:35;;;;;;;;;;;;;;;22.00;21.08;101612.16;4966721;28;7243;-82
2023/04/04 12:32:02;;;;;;;;;;;;;;;21.95;20.75;101611.16;4958613;28;7387;-82
2023/04/04 12:34:32;;;;;;;;;;;;;;;21.95;21.07;101608.56;4961358;28;6796;-82
2023/04/04 12:37:01;;;;;;;;;;;;;;;22.11;21.15;101604.50;4938215;28;6972;-82
2023/04/04 12:39:28;;;;;;;;;;;;;;;22.00;20.85;101599.09;4961968;28;6949;-82
2023/04/04 12:42:02;;;;;;;;;;;;;;;21.71;21.18;101605.47;4961083;28;7268;-82
2023/04/04 12:44:38;;;;;;;;;;;;;;;21.77;21.14;101603.00;4945341;28;8632;-82
2023/04/04 12:47:07;;;;;;;;;;;;;;;21.99;21.16;101600.81;4971036;28;6946;-81
2023/04/04 12:49:47;;;;;;;;;;;;;;;22.26;21.16;101599.59;4943353;28;6863;-82
2023/04/04 12:52:30;;;;;;;;;;;;;;;22.34;20.40;101605.84;4972558;28;6949;-82
2023/04/04 12:55:08;;;;;;;;;;;;;;;22.26;20.25;101593.47;4957020;28;6808;-82
2023/04/04 12:57:37;;;;;;;;;;;;;;;22.02;20.32;101600.91;4942055;28;8507;-82
2023/04/04 13:00:05;;;;;;;;;;;;;;;21.76;20.06;101596.03;4968288;28;6796;-82